createdAt,value
2023-05-17T00:02:16.894Z,2.42
2023-05-17T00:04:45.287Z,2.25
2023-05-17T00:07:11.894Z,2.17
2023-05-17T00:09:38.503Z,2.33
2023-05-17T00:12:05.652Z,2.22
2023-05-17T00:14:32.328Z,2.10
2023-05-17T00:16:58.963Z,2.25
2023-05-17T00:19:25.818Z,2.28
2023-05-17T00:21:52.721Z,1.90
2023-05-17T00:24:19.404Z,1.80
2023-05-17T00:26:46.256Z,1.33
2023-05-17T00:29:12.895Z,0.93
2023-05-17T00:31:39.784Z,1.83
2023-05-17T00:34:06.597Z,1.60
2023-05-17T00:36:33.478Z,1.33
2023-05-17T00:39:00.024Z,2.15
2023-05-17T00:41:26.636Z,1.35
2023-05-17T00:43:53.542Z,1.67
2023-05-17T00:46:20.170Z,1.60
2023-05-17T00:48:46.878Z,1.40
2023-05-17T00:51:14.674Z,1.60
2023-05-17T00:53:41.540Z,1.45
2023-05-17T00:56:08.249Z,1.50
2023-05-17T00:58:37.074Z,2.07
2023-05-17T01:01:04.044Z,1.45
2023-05-17T01:03:31.049Z,2.05
2023-05-17T01:05:57.743Z,1.40
2023-05-17T01:08:24.390Z,1.40
2023-05-17T01:11:15.692Z,1.37
2023-05-17T01:14:01.457Z,1.77
2023-05-17T01:16:39.545Z,1.77
2023-05-17T01:19:26.628Z,1.25
2023-05-17T01:22:28.096Z,1.35
2023-05-17T01:25:24.526Z,1.30
2023-05-17T01:27:55.912Z,1.38
2023-05-17T01:30:25.164Z,1.48
2023-05-17T01:32:53.547Z,1.08
2023-05-17T01:35:20.483Z,1.48
2023-05-17T01:37:47.872Z,1.40
2023-05-17T01:40:14.687Z,1.17
2023-05-17T01:42:44.710Z,1.67
2023-05-17T01:45:24.317Z,1.63
2023-05-17T01:48:12.979Z,1.13
2023-05-17T01:50:41.574Z,1.40
2023-05-17T01:53:12.035Z,1.10
2023-05-17T01:55:48.869Z,1.60
2023-05-17T01:58:16.496Z,1.40
2023-05-17T02:00:45.318Z,1.50
2023-05-17T02:03:19.388Z,1.30
2023-05-17T02:05:46.334Z,1.42
2023-05-17T02:08:13.760Z,1.25
2023-05-17T02:10:40.687Z,1.55
2023-05-17T02:13:07.452Z,1.20
2023-05-17T02:15:34.068Z,0.87
2023-05-17T02:18:00.767Z,0.88
2023-05-17T02:20:27.719Z,1.00
2023-05-17T02:22:54.317Z,1.42
2023-05-17T02:25:21.993Z,1.73
2023-05-17T02:27:48.648Z,1.53
2023-05-17T02:30:18.210Z,1.10
2023-05-17T02:32:45.247Z,1.13
2023-05-17T02:35:12.117Z,1.25
2023-05-17T02:37:38.744Z,0.98
2023-05-17T02:40:09.806Z,1.27
2023-05-17T02:42:37.175Z,0.98
2023-05-17T02:45:04.538Z,0.95
2023-05-17T02:47:32.478Z,0.93
2023-05-17T02:49:59.161Z,1.27
2023-05-17T02:52:25.847Z,1.20
2023-05-17T02:54:52.447Z,1.25
2023-05-17T02:57:19.351Z,1.17
2023-05-17T02:59:46.036Z,0.93
2023-05-17T03:02:13.066Z,1.95
2023-05-17T03:04:39.736Z,1.13
2023-05-17T03:07:07.378Z,1.30
2023-05-17T03:09:34.568Z,1.17
2023-05-17T03:12:01.522Z,1.20
2023-05-17T03:14:28.201Z,1.48
2023-05-17T03:16:54.920Z,1.10
2023-05-17T03:19:21.623Z,1.60
2023-05-17T03:21:48.370Z,0.95
2023-05-17T03:24:15.006Z,1.08
2023-05-17T03:26:44.462Z,0.90
2023-05-17T03:29:11.147Z,1.33
2023-05-17T03:31:37.768Z,1.10
2023-05-17T03:34:04.491Z,1.08
2023-05-17T03:36:31.621Z,0.82
2023-05-17T03:38:58.286Z,1.27
2023-05-17T03:41:24.973Z,1.23
2023-05-17T03:43:51.845Z,1.20
2023-05-17T03:46:18.442Z,1.17
2023-05-17T03:48:45.051Z,1.10
2023-05-17T03:51:11.673Z,1.20
2023-05-17T03:53:41.378Z,1.03
2023-05-17T03:56:08.119Z,1.23
2023-05-17T03:58:34.783Z,1.52
2023-05-17T04:01:01.570Z,1.13
2023-05-17T04:03:28.232Z,1.35
2023-05-17T04:06:01.683Z,1.40
2023-05-17T04:08:28.306Z,1.38
2023-05-17T04:10:55.063Z,1.45
2023-05-17T04:13:21.646Z,1.13
2023-05-17T04:15:48.234Z,1.45
2023-05-17T04:18:15.192Z,1.03
2023-05-17T04:20:42.374Z,1.10
2023-05-17T04:23:09.131Z,1.35
2023-05-17T04:25:35.809Z,0.90
2023-05-17T04:28:02.408Z,2.70
2023-05-17T04:30:28.978Z,4.10
2023-05-17T04:32:55.993Z,3.63
2023-05-17T04:35:22.632Z,4.97
2023-05-17T04:37:49.251Z,7.07
2023-05-17T04:40:16.051Z,8.15
2023-05-17T04:42:42.670Z,7.40
2023-05-17T04:45:09.884Z,5.18
2023-05-17T04:47:37.669Z,2.58
2023-05-17T04:50:04.951Z,1.67
2023-05-17T04:52:32.233Z,1.38
2023-05-17T04:54:58.910Z,1.13
2023-05-17T04:57:25.609Z,1.77
2023-05-17T04:59:52.415Z,2.00
2023-05-17T05:02:19.297Z,2.35
2023-05-17T05:04:46.161Z,1.63
2023-05-17T05:07:12.823Z,1.33
2023-05-17T05:09:39.447Z,1.50
2023-05-17T05:12:06.534Z,0.88
2023-05-17T05:14:33.203Z,1.15
2023-05-17T05:16:59.789Z,1.25
2023-05-17T05:19:26.475Z,0.80
2023-05-17T05:21:53.108Z,1.30
2023-05-17T05:24:19.790Z,1.80
2023-05-17T05:26:46.694Z,1.05
2023-05-17T05:29:13.295Z,1.52
2023-05-17T05:31:40.272Z,0.90
2023-05-17T05:34:06.935Z,0.77
2023-05-17T05:36:34.615Z,1.02
2023-05-17T05:39:01.520Z,1.50
2023-05-17T05:41:28.357Z,1.05
2023-05-17T05:43:55.368Z,1.50
2023-05-17T05:46:21.934Z,0.95
2023-05-17T05:48:48.562Z,1.23
2023-05-17T05:51:15.209Z,1.05
2023-05-17T05:53:41.934Z,1.10
2023-05-17T05:56:09.850Z,1.30
2023-05-17T05:58:36.905Z,1.02
2023-05-17T06:01:06.132Z,1.25
2023-05-17T06:03:33.417Z,1.30
2023-05-17T06:06:00.100Z,1.10
2023-05-17T06:08:27.062Z,1.60
2023-05-17T06:10:53.880Z,1.67
2023-05-17T06:13:20.583Z,1.55
2023-05-17T06:15:47.197Z,0.90
2023-05-17T06:18:14.094Z,1.30
2023-05-17T06:20:40.782Z,1.20
2023-05-17T06:23:07.488Z,1.27
2023-05-17T06:25:34.151Z,1.40
2023-05-17T06:28:03.012Z,1.38
2023-05-17T06:30:30.674Z,4.07
2023-05-17T06:32:57.812Z,1.90
2023-05-17T06:35:24.543Z,1.55
2023-05-17T06:37:51.188Z,1.58
2023-05-17T06:40:17.853Z,1.10
2023-05-17T06:42:44.576Z,0.98
2023-05-17T06:45:11.537Z,1.67
2023-05-17T06:47:38.370Z,1.33
2023-05-17T06:50:06.053Z,1.38
2023-05-17T06:52:33.037Z,1.40
2023-05-17T06:54:59.673Z,1.88
2023-05-17T06:57:26.389Z,1.53
2023-05-17T06:59:53.170Z,1.50
2023-05-17T07:02:19.864Z,1.80
2023-05-17T07:04:46.578Z,1.90
2023-05-17T07:07:13.223Z,1.55
2023-05-17T07:09:40.356Z,1.17
2023-05-17T07:12:07.467Z,1.85
2023-05-17T07:14:34.218Z,1.10
2023-05-17T07:17:01.094Z,1.20
2023-05-17T07:19:28.129Z,1.48
2023-05-17T07:21:55.041Z,1.90
2023-05-17T07:24:21.671Z,1.73
2023-05-17T07:26:49.759Z,1.70
2023-05-17T07:29:17.423Z,1.80
2023-05-17T07:31:44.064Z,1.75
2023-05-17T07:34:10.993Z,2.00
2023-05-17T07:36:37.734Z,2.55
2023-05-17T07:39:05.485Z,1.60
2023-05-17T07:41:34.019Z,1.83
2023-05-17T07:44:00.700Z,1.70
2023-05-17T07:46:27.499Z,1.77
2023-05-17T07:48:56.527Z,1.83
2023-05-17T07:51:24.898Z,1.40
2023-05-17T07:53:51.645Z,2.00
2023-05-17T07:56:18.263Z,1.58
2023-05-17T07:58:45.043Z,2.07
2023-05-17T08:01:11.820Z,1.95
2023-05-17T08:03:38.486Z,2.50
2023-05-17T08:06:05.602Z,2.03
2023-05-17T08:08:32.241Z,1.88
2023-05-17T08:10:58.860Z,2.00
2023-05-17T08:13:25.668Z,2.03
2023-05-17T08:15:55.987Z,1.70
2023-05-17T08:18:28.447Z,2.47
2023-05-17T08:20:55.326Z,2.10
2023-05-17T08:23:22.255Z,2.23
2023-05-17T08:25:49.086Z,2.10
2023-05-17T08:28:15.720Z,2.70
2023-05-17T08:30:42.397Z,3.50
2023-05-17T08:33:12.293Z,2.53
2023-05-17T08:35:38.943Z,2.00
2023-05-17T08:38:05.775Z,2.30
2023-05-17T08:40:32.750Z,2.33
2023-05-17T08:43:00.024Z,2.22
2023-05-17T08:45:31.990Z,2.53
2023-05-17T08:47:59.073Z,3.13
2023-05-17T08:50:30.094Z,2.88
2023-05-17T08:52:58.667Z,2.08
2023-05-17T08:55:28.295Z,2.05
2023-05-17T08:57:56.226Z,2.15
2023-05-17T09:00:26.361Z,1.97
2023-05-17T09:02:53.848Z,1.77
2023-05-17T09:05:20.579Z,2.20
2023-05-17T09:07:49.524Z,2.15
2023-05-17T09:10:16.117Z,2.17
2023-05-17T09:12:44.247Z,1.80
2023-05-17T09:15:18.908Z,1.92
2023-05-17T09:17:53.814Z,2.22
2023-05-17T09:20:35.480Z,2.00
2023-05-17T09:23:07.157Z,3.03
2023-05-17T09:25:34.125Z,2.47
2023-05-17T09:28:10.361Z,2.40
2023-05-17T09:30:42.117Z,1.65
2023-05-17T09:33:12.466Z,2.45
2023-05-17T09:35:43.106Z,1.95
2023-05-17T09:38:13.203Z,2.47
2023-05-17T09:40:44.639Z,2.17
2023-05-17T09:43:12.186Z,2.17
2023-05-17T09:45:38.987Z,2.38
2023-05-17T09:48:17.287Z,2.33
2023-05-17T09:50:46.380Z,2.23
2023-05-17T09:53:26.485Z,2.10
2023-05-17T09:55:58.154Z,2.13
2023-05-17T09:58:26.030Z,1.88
2023-05-17T10:00:55.262Z,2.58
2023-05-17T10:03:22.607Z,2.20
2023-05-17T10:05:52.726Z,1.88
2023-05-17T10:08:23.691Z,2.22
2023-05-17T10:10:51.401Z,2.80
2023-05-17T10:13:25.017Z,2.50
2023-05-17T10:15:53.357Z,2.27
2023-05-17T10:18:22.084Z,2.05
2023-05-17T10:20:49.581Z,2.25
2023-05-17T10:23:18.218Z,2.20
2023-05-17T10:25:45.267Z,3.33
2023-05-17T10:28:14.678Z,2.33
2023-05-17T10:30:41.714Z,2.17
2023-05-17T10:33:09.344Z,2.05
2023-05-17T10:35:37.319Z,2.28
2023-05-17T10:38:05.263Z,2.58
2023-05-17T10:40:33.156Z,2.13
2023-05-17T10:43:01.688Z,2.33
2023-05-17T10:45:28.488Z,2.10
2023-05-17T10:47:57.659Z,2.50
2023-05-17T10:50:27.232Z,2.53
2023-05-17T10:52:56.476Z,2.50
2023-05-17T10:55:25.406Z,2.20
2023-05-17T10:58:13.588Z,2.15
2023-05-17T11:00:49.105Z,2.20
2023-05-17T11:03:29.081Z,2.63
2023-05-17T11:06:21.978Z,2.13
2023-05-17T11:09:08.256Z,2.30
2023-05-17T11:11:35.123Z,2.53
2023-05-17T11:14:04.985Z,2.17
2023-05-17T11:16:36.335Z,2.55
2023-05-17T11:19:11.329Z,1.97
2023-05-17T11:21:48.105Z,2.30
2023-05-17T11:24:27.384Z,2.40
2023-05-17T11:26:55.840Z,2.85
2023-05-17T11:29:31.091Z,2.65
2023-05-17T11:31:57.775Z,2.30
2023-05-17T11:34:25.757Z,2.55
2023-05-17T11:36:54.844Z,1.95
2023-05-17T11:39:23.353Z,2.75
2023-05-17T11:41:52.440Z,2.22
2023-05-17T11:44:33.521Z,1.83
2023-05-17T11:47:05.307Z,2.17
2023-05-17T11:49:36.376Z,2.67
2023-05-17T11:52:05.157Z,2.42
2023-05-17T11:54:32.333Z,2.58
2023-05-17T11:57:04.082Z,3.00
2023-05-17T11:59:38.883Z,2.70
2023-05-17T12:02:05.918Z,2.53
2023-05-17T12:04:38.073Z,2.20
2023-05-17T12:07:05.355Z,2.63
2023-05-17T12:09:32.316Z,2.47
2023-05-17T12:12:04.146Z,2.78
2023-05-17T12:14:34.087Z,2.85
2023-05-17T12:17:04.301Z,3.05
2023-05-17T12:19:32.967Z,3.15
2023-05-17T12:22:13.054Z,2.47
2023-05-17T12:24:43.934Z,3.38
2023-05-17T12:27:10.843Z,3.38
2023-05-17T12:29:39.396Z,3.50
2023-05-17T12:32:08.037Z,2.92
2023-05-17T12:34:35.280Z,3.30
2023-05-17T12:37:01.872Z,3.40
2023-05-17T12:39:33.250Z,3.45
2023-05-17T12:42:01.249Z,3.38
2023-05-17T12:44:27.855Z,3.10
2023-05-17T12:46:56.554Z,3.90
2023-05-17T12:49:23.592Z,4.20
2023-05-17T12:51:50.565Z,3.80
2023-05-17T12:54:30.013Z,3.28
2023-05-17T12:56:57.536Z,3.45
2023-05-17T12:59:29.439Z,3.87
2023-05-17T13:01:57.691Z,3.35
2023-05-17T13:04:33.380Z,3.60
2023-05-17T13:07:03.590Z,3.15
2023-05-17T13:09:32.302Z,3.47
2023-05-17T13:12:05.850Z,3.70
2023-05-17T13:14:46.066Z,3.20
2023-05-17T13:17:27.524Z,3.33
2023-05-17T13:19:57.366Z,3.15
2023-05-17T13:22:25.629Z,3.05
2023-05-17T13:24:52.860Z,2.83
2023-05-17T13:27:19.536Z,3.05
2023-05-17T13:29:46.518Z,3.50
2023-05-17T13:32:14.079Z,3.60
2023-05-17T13:34:41.661Z,3.05
2023-05-17T13:37:12.174Z,3.27
2023-05-17T13:39:40.590Z,3.92
2023-05-17T13:42:07.502Z,3.85
2023-05-17T13:44:34.230Z,2.88
2023-05-17T13:47:01.053Z,3.03
2023-05-17T13:49:28.717Z,2.97
2023-05-17T13:51:55.545Z,3.10
2023-05-17T13:54:25.053Z,3.75
2023-05-17T13:56:52.118Z,3.13
2023-05-17T13:59:18.775Z,3.80
2023-05-17T14:01:45.941Z,3.47
2023-05-17T14:04:13.701Z,3.15
2023-05-17T14:06:41.966Z,3.92
2023-05-17T14:09:08.582Z,3.13
2023-05-17T14:11:35.181Z,3.03
2023-05-17T14:14:01.886Z,2.50
2023-05-17T14:16:28.695Z,2.83
2023-05-17T14:18:55.437Z,2.67
2023-05-17T14:21:22.185Z,2.90
2023-05-17T14:23:48.790Z,2.33
2023-05-17T14:26:18.345Z,3.00
2023-05-17T14:28:44.940Z,2.58
2023-05-17T14:31:11.843Z,2.55
2023-05-17T14:33:38.440Z,2.67
2023-05-17T14:36:05.362Z,2.53
2023-05-17T14:38:32.030Z,2.40
2023-05-17T14:41:00.818Z,2.17
2023-05-17T14:43:27.746Z,2.80
2023-05-17T14:45:54.388Z,2.28
2023-05-17T14:48:21.147Z,2.55
2023-05-17T14:50:47.997Z,2.37
2023-05-17T14:53:14.836Z,2.47
2023-05-17T14:55:41.980Z,2.83
2023-05-17T14:58:08.598Z,2.33
2023-05-17T15:00:35.547Z,2.85
2023-05-17T15:03:02.251Z,2.83
2023-05-17T15:05:29.472Z,2.55
2023-05-17T15:07:56.783Z,2.35
2023-05-17T15:10:23.983Z,2.67
2023-05-17T15:12:50.560Z,2.55
2023-05-17T15:15:18.028Z,2.23
2023-05-17T15:17:44.647Z,2.80
2023-05-17T15:20:11.756Z,2.00
2023-05-17T15:22:38.449Z,2.85
2023-05-17T15:25:07.591Z,2.90
2023-05-17T15:27:34.412Z,3.13
2023-05-17T15:30:01.509Z,2.78
2023-05-17T15:32:28.113Z,2.38
2023-05-17T15:34:54.928Z,2.67
2023-05-17T15:37:21.742Z,2.80
2023-05-17T15:39:48.396Z,2.00
2023-05-17T15:42:14.999Z,2.55
2023-05-17T15:44:41.564Z,2.47
2023-05-17T15:47:08.232Z,2.08
2023-05-17T15:49:35.229Z,2.63
2023-05-17T15:52:02.130Z,2.50
2023-05-17T15:54:28.964Z,3.75
2023-05-17T15:56:55.577Z,2.78
2023-05-17T15:59:22.161Z,3.00
2023-05-17T16:01:49.426Z,2.40
2023-05-17T16:04:16.260Z,2.80
2023-05-17T16:06:43.157Z,2.78
2023-05-17T16:09:10.056Z,2.88
2023-05-17T16:11:37.167Z,3.47
2023-05-17T16:14:03.783Z,2.75
2023-05-17T16:16:30.407Z,2.67
2023-05-17T16:18:57.975Z,2.95
2023-05-17T16:21:24.953Z,2.67
2023-05-17T16:23:51.937Z,2.50
2023-05-17T16:26:18.967Z,2.20
2023-05-17T16:28:45.825Z,2.40
2023-05-17T16:31:12.913Z,2.55
2023-05-17T16:33:41.559Z,2.47
2023-05-17T16:36:08.961Z,3.65
2023-05-17T16:38:35.839Z,4.95
2023-05-17T16:41:03.468Z,4.50
2023-05-17T16:43:31.094Z,3.03
2023-05-17T16:45:57.769Z,3.92
2023-05-17T16:48:24.405Z,2.85
2023-05-17T16:50:51.552Z,4.28
2023-05-17T16:53:18.416Z,4.80
2023-05-17T16:55:45.136Z,5.50
2023-05-17T16:58:12.239Z,4.00
2023-05-17T17:00:39.055Z,6.22
2023-05-17T17:03:09.010Z,3.80
2023-05-17T17:05:36.654Z,8.43
2023-05-17T17:08:03.453Z,4.75
2023-05-17T17:10:30.453Z,2.90
2023-05-17T17:12:57.324Z,3.45
2023-05-17T17:15:24.021Z,8.68
2023-05-17T17:17:51.180Z,5.47
2023-05-17T17:20:18.278Z,3.08
2023-05-17T17:22:44.853Z,3.33
2023-05-17T17:25:11.517Z,3.35
2023-05-17T17:27:38.436Z,3.70
2023-05-17T17:30:06.852Z,5.07
2023-05-17T17:32:33.657Z,3.58
2023-05-17T17:35:00.588Z,6.65
2023-05-17T17:37:27.471Z,4.70
2023-05-17T17:39:54.136Z,4.20
2023-05-17T17:42:20.911Z,3.80
2023-05-17T17:44:47.917Z,4.70
2023-05-17T17:47:14.768Z,4.63
2023-05-17T17:49:41.502Z,5.00
2023-05-17T17:52:08.079Z,4.13
2023-05-17T17:54:34.737Z,3.60
2023-05-17T17:57:02.565Z,3.50
2023-05-17T17:59:29.409Z,3.00
2023-05-17T18:01:56.085Z,3.80
2023-05-17T18:04:22.781Z,2.70
2023-05-17T18:06:50.287Z,3.43
2023-05-17T18:09:17.057Z,2.80
2023-05-17T18:11:43.915Z,2.67
2023-05-17T18:14:10.787Z,2.58
2023-05-17T18:16:37.890Z,3.28
2023-05-17T18:19:05.157Z,2.70
2023-05-17T18:21:32.004Z,3.30
2023-05-17T18:23:58.821Z,3.33
2023-05-17T18:26:26.051Z,3.78
2023-05-17T18:28:52.911Z,3.15
2023-05-17T18:31:19.590Z,3.37
2023-05-17T18:33:46.292Z,3.10
2023-05-17T18:36:12.992Z,3.13
2023-05-17T18:38:39.735Z,2.97
2023-05-17T18:41:06.732Z,3.05
2023-05-17T18:43:35.239Z,3.40
2023-05-17T18:46:02.009Z,3.13
2023-05-17T18:48:28.637Z,3.30
2023-05-17T18:50:57.591Z,3.28
2023-05-17T18:53:24.462Z,3.60
2023-05-17T18:55:51.033Z,4.17
2023-05-17T18:58:17.667Z,4.22
2023-05-17T19:00:48.295Z,4.10
2023-05-17T19:03:15.472Z,3.65
2023-05-17T19:05:42.356Z,3.78
2023-05-17T19:08:08.944Z,3.50
2023-05-17T19:10:35.698Z,3.30
2023-05-17T19:13:02.307Z,2.40
2023-05-17T19:15:28.913Z,3.28
2023-05-17T19:17:55.801Z,3.40
2023-05-17T19:20:22.503Z,3.53
2023-05-17T19:22:49.471Z,3.00
2023-05-17T19:25:16.836Z,3.15
2023-05-17T19:27:44.202Z,3.17
2023-05-17T19:30:11.068Z,3.03
2023-05-17T19:32:38.046Z,3.17
2023-05-17T19:35:05.065Z,3.72
2023-05-17T19:37:31.744Z,3.35
2023-05-17T19:39:59.186Z,3.50
2023-05-17T19:42:25.795Z,3.50
2023-05-17T19:44:52.336Z,3.10
2023-05-17T19:47:18.935Z,3.22
2023-05-17T19:49:46.267Z,3.40
2023-05-17T19:52:12.869Z,3.35
2023-05-17T19:54:39.500Z,3.40
2023-05-17T19:57:06.499Z,3.33
2023-05-17T19:59:33.150Z,3.40
2023-05-17T20:01:59.875Z,3.75
2023-05-17T20:04:26.499Z,4.43
2023-05-17T20:06:53.216Z,4.15
2023-05-17T20:09:19.801Z,4.40
2023-05-17T20:11:46.450Z,3.92
2023-05-17T20:14:13.295Z,4.50
2023-05-17T20:16:39.958Z,3.75
2023-05-17T20:19:06.975Z,3.80
2023-05-17T20:21:33.777Z,3.50
2023-05-17T20:24:06.825Z,3.15
2023-05-17T20:26:37.046Z,3.58
2023-05-17T20:29:08.066Z,3.58
2023-05-17T20:31:36.467Z,3.47
2023-05-17T20:34:05.022Z,3.80
2023-05-17T20:36:31.620Z,3.63
2023-05-17T20:38:58.282Z,3.50
2023-05-17T20:41:24.934Z,4.18
2023-05-17T20:43:52.088Z,3.17
2023-05-17T20:46:19.002Z,4.23
2023-05-17T20:48:48.319Z,3.30
2023-05-17T20:51:16.012Z,3.05
2023-05-17T20:53:42.780Z,2.88
2023-05-17T20:56:11.158Z,3.63
2023-05-17T20:58:37.849Z,3.70
2023-05-17T21:01:05.935Z,3.90
2023-05-17T21:03:35.556Z,2.90
2023-05-17T21:06:02.462Z,3.42
2023-05-17T21:08:29.167Z,3.97
2023-05-17T21:10:56.675Z,3.83
2023-05-17T21:13:25.759Z,3.13
2023-05-17T21:15:56.026Z,3.67
2023-05-17T21:18:23.913Z,3.83
2023-05-17T21:20:51.493Z,3.80
2023-05-17T21:23:18.784Z,4.10
2023-05-17T21:25:45.560Z,3.92
2023-05-17T21:28:12.212Z,3.38
2023-05-17T21:30:38.820Z,3.58
2023-05-17T21:33:05.783Z,3.67
2023-05-17T21:35:32.452Z,2.83
2023-05-17T21:37:59.045Z,2.75
2023-05-17T21:40:25.802Z,2.88
2023-05-17T21:42:52.403Z,3.20
2023-05-17T21:45:18.962Z,3.00
2023-05-17T21:47:45.611Z,3.43
2023-05-17T21:50:12.244Z,2.70
2023-05-17T21:52:38.846Z,2.75
2023-05-17T21:55:06.092Z,2.90
2023-05-17T21:57:36.358Z,3.17
2023-05-17T22:00:04.849Z,3.37
2023-05-17T22:02:34.142Z,2.92
2023-05-17T22:05:00.839Z,3.90
2023-05-17T22:07:27.459Z,3.78
2023-05-17T22:10:00.496Z,4.18
2023-05-17T22:12:27.352Z,3.60
2023-05-17T22:14:57.334Z,3.50
2023-05-17T22:17:34.976Z,3.63
2023-05-17T22:20:11.435Z,5.13
2023-05-17T22:22:38.109Z,5.07
2023-05-17T22:25:05.659Z,5.13
2023-05-17T22:27:32.355Z,4.18
2023-05-17T22:29:58.970Z,4.43
2023-05-17T22:32:25.661Z,3.95
2023-05-17T22:34:53.084Z,4.15
2023-05-17T22:37:22.804Z,3.70
2023-05-17T22:39:49.587Z,3.35
2023-05-17T22:42:16.216Z,3.65
2023-05-17T22:44:42.907Z,3.90
2023-05-17T22:47:14.908Z,2.80
2023-05-17T22:49:42.057Z,3.10
2023-05-17T22:52:09.138Z,3.70
2023-05-17T22:54:37.179Z,3.30
2023-05-17T22:57:04.945Z,3.38
2023-05-17T22:59:34.604Z,4.00
2023-05-17T23:02:02.429Z,3.90
2023-05-17T23:04:30.473Z,3.67
2023-05-17T23:07:02.628Z,3.58
2023-05-17T23:09:38.930Z,3.75
2023-05-17T23:12:06.509Z,4.55
2023-05-17T23:14:34.370Z,3.80
2023-05-17T23:17:02.473Z,3.70
2023-05-17T23:19:30.071Z,3.80
2023-05-17T23:21:57.255Z,4.03
2023-05-17T23:24:26.034Z,3.97
2023-05-17T23:26:52.857Z,4.40
2023-05-17T23:29:20.128Z,4.25
2023-05-17T23:31:48.312Z,4.22
2023-05-17T23:34:15.336Z,3.50
2023-05-17T23:36:42.229Z,3.80
2023-05-17T23:39:09.203Z,3.40
2023-05-17T23:41:37.921Z,3.30
2023-05-17T23:44:08.019Z,3.90
2023-05-17T23:46:34.745Z,3.45
2023-05-17T23:49:02.514Z,3.70
2023-05-17T23:51:29.445Z,3.87
2023-05-17T23:53:56.286Z,3.22
2023-05-17T23:56:23.321Z,3.80
2023-05-17T23:58:50.162Z,3.65
